Time;durP1;ratioP1;P1;durP2;ratioP2;P2;SDS_P1;SDS_P2;PMS_P1;PMS_P2;Temp;Humidity;BMP_temperature;BMP_pressure;BME280_temperature;BME280_humidity;BME280_pressure;Samples;Min_cycle;Max_cycle;Signal;HPM_P1;HPM_P2
2022/07/10 14:04:15;;;;;;;8.08;2.50;;;;;;;18.67;73.19;100716.72;5325150;54;46098;-68
2022/07/10 14:09:23;;;;;;;11.22;3.50;;;;;;;17.88;77.25;100714.00;5109983;56;1134830;-69
2022/07/10 14:14:28;;;;;;;4.90;1.93;;;;;;;17.42;78.80;100723.77;5098732;57;1141096;-70
2022/07/10 14:19:33;;;;;;;5.73;1.77;;;;;;;17.49;81.14;100713.62;5098565;57;1139068;-68
2022/07/10 14:24:39;;;;;;;9.90;2.22;;;;;;;17.71;83.89;100700.24;5104652;57;1139100;-68
2022/07/10 14:29:45;;;;;;;7.55;1.30;;;;;;;18.13;88.05;100698.03;5099696;57;1138935;-69
2022/07/10 14:34:51;;;;;;;7.12;1.52;;;;;;;18.50;87.26;100698.42;5097169;56;1139242;-69
2022/07/10 14:39:56;;;;;;;8.58;2.62;;;;;;;18.78;85.45;100691.46;5098786;57;1139016;-69
2022/07/10 14:45:02;;;;;;;7.83;3.05;;;;;;;18.82;82.16;100685.58;5099916;57;1138986;-69
2022/07/10 14:50:10;;;;;;;6.62;2.15;;;;;;;19.07;80.20;100685.57;5123697;57;21152;-69
2022/07/10 14:55:16;;;;;;;1.98;0.70;;;;;;;19.32;74.58;100683.16;5102944;57;1132822;-68
2022/07/10 15:00:22;;;;;;;5.78;0.85;;;;;;;19.33;67.54;100691.05;5095324;56;1136842;-69
2022/07/10 15:05:34;;;;;;;3.52;1.25;;;;;;;19.29;68.76;100692.89;5075881;57;1136991;-69
2022/07/10 15:10:45;;;;;;;2.08;1.15;;;;;;;19.44;69.43;100705.09;5024919;57;1136929;-68
2022/07/10 15:15:51;;;;;;;4.50;1.07;;;;;;;19.64;69.28;100713.95;5103547;57;1136962;-68
2022/07/10 15:20:58;;;;;;;2.52;0.95;;;;;;;19.59;67.79;100702.89;5088439;57;1136944;-69
2022/07/10 15:26:04;;;;;;;2.65;0.60;;;;;;;19.32;69.32;100705.45;5148863;56;1137018;-68
2022/07/10 15:31:10;;;;;;;3.58;0.70;;;;;;;18.96;70.37;100733.14;5100503;56;1136992;-69
2022/07/10 15:36:16;;;;;;;1.22;0.57;;;;;;;18.30;76.76;100758.66;5157323;56;1137367;-68
2022/07/10 15:41:22;;;;;;;1.72;0.70;;;;;;;17.32;81.30;100750.62;5160512;56;1136942;-68
2022/07/10 15:46:27;;;;;;;9.10;1.13;;;;;;;16.52;82.94;100756.91;5151556;56;1137167;-68
2022/07/10 15:51:34;;;;;;;2.33;0.80;;;;;;;16.32;84.89;100764.23;5203954;56;1137266;-68
2022/07/10 15:56:39;;;;;;;1.87;0.70;;;;;;;16.30;86.83;100766.20;5184178;56;1136964;-69
2022/07/10 16:01:45;;;;;;;1.40;0.83;;;;;;;16.23;87.07;100756.27;5216814;56;1136956;-68
2022/07/10 16:06:53;;;;;;;2.03;0.80;;;;;;;16.30;87.44;100760.03;5151457;55;1136969;-68
2022/07/10 16:11:58;;;;;;;3.10;1.10;;;;;;;16.48;90.56;100763.57;5184102;56;1134895;-69
2022/07/10 16:17:06;;;;;;;4.17;0.90;;;;;;;16.86;90.53;100761.95;5234324;55;1139034;-70
2022/07/10 16:22:13;;;;;;;1.67;1.37;;;;;;;17.11;89.17;100757.64;5139967;56;1139143;-69
2022/07/10 16:27:18;;;;;;;2.80;0.85;;;;;;;17.10;88.78;100755.16;5142449;56;1139036;-68
2022/07/10 16:32:24;;;;;;;2.90;0.93;;;;;;;17.30;89.64;100761.96;5142268;56;1139057;-69
2022/07/10 16:37:30;;;;;;;4.77;0.90;;;;;;;17.36;88.27;100751.16;5138959;56;1139021;-68
2022/07/10 16:42:36;;;;;;;7.03;1.20;;;;;;;17.41;88.66;100761.73;5142230;56;1139024;-68
2022/07/10 16:47:41;;;;;;;6.32;1.32;;;;;;;17.44;89.25;100760.55;5140443;56;1139068;-69
2022/07/10 16:52:47;;;;;;;3.23;1.33;;;;;;;17.39;88.67;100759.70;5080369;57;1139005;-69
2022/07/10 16:57:53;;;;;;;6.43;1.07;;;;;;;17.22;88.62;100754.73;5123839;56;1139316;-68
2022/07/10 17:02:59;;;;;;;4.00;1.40;;;;;;;17.22;89.68;100745.87;5120201;57;1139444;-68
2022/07/10 17:08:09;;;;;;;2.67;1.73;;;;;;;17.40;90.60;100744.50;5041420;58;1138346;-68
2022/07/10 17:13:13;;;;;;;6.63;1.77;;;;;;;17.47;89.96;100769.10;5090709;57;1139140;-68
2022/07/10 17:18:19;;;;;;;8.50;3.83;;;;;;;17.46;89.90;100818.72;5042013;58;1139061;-67
2022/07/10 17:23:25;;;;;;;9.23;6.00;;;;;;;17.33;88.76;100812.95;5026701;59;1139064;-68
2022/07/10 17:28:30;;;;;;;7.97;4.87;;;;;;;17.22;89.10;100810.88;5043682;57;1139053;-67
2022/07/10 17:33:36;;;;;;;10.57;8.90;;;;;;;17.09;88.85;100805.09;5063012;58;1139045;-67
2022/07/10 17:38:42;;;;;;;2.63;1.43;;;;;;;17.12;89.52;100794.06;5094286;56;1141213;-66
2022/07/10 17:43:48;;;;;;;3.20;1.00;;;;;;;17.12;89.46;100788.72;5164501;56;1139274;-67
2022/07/10 17:48:54;;;;;;;4.00;1.53;;;;;;;16.92;90.14;100783.72;5135348;57;1139066;-67
2022/07/10 17:54:01;;;;;;;1.47;0.60;;;;;;;16.66;91.01;100790.29;5122840;57;1139080;-67
2022/07/10 17:59:06;;;;;;;1.60;0.80;;;;;;;16.38;91.61;100794.80;4977127;58;1139111;-67
2022/07/10 18:04:12;;;;;;;0.70;0.50;;;;;;;16.25;92.27;100799.66;4925759;59;1139080;-67
2022/07/10 18:09:17;;;;;;;0.73;0.60;;;;;;;16.06;92.44;100807.26;4925477;60;1139077;-67
2022/07/10 18:14:23;;;;;;;3.00;0.63;;;;;;;15.97;92.39;100812.16;5001462;59;1139032;-67
2022/07/10 18:19:28;;;;;;;2.17;0.87;;;;;;;15.91;92.88;100824.23;4949102;58;1139056;-68
2022/07/10 18:24:35;;;;;;;1.87;0.80;;;;;;;15.82;93.51;100820.63;4925317;58;1139050;-67
2022/07/10 18:29:40;;;;;;;4.10;1.23;;;;;;;15.77;95.76;100825.55;5075673;57;1139104;-67
2022/07/10 18:34:46;;;;;;;7.20;1.90;;;;;;;15.66;95.91;100836.39;5063230;57;1139049;-67
2022/07/10 18:39:55;;;;;;;12.07;2.43;;;;;;;15.58;96.47;100832.28;5084659;57;1139057;-67
2022/07/10 18:45:01;;;;;;;6.60;2.50;;;;;;;15.48;97.41;100825.59;5073825;57;1141035;-67
2022/07/10 18:50:07;;;;;;;4.83;1.63;;;;;;;15.41;97.29;100831.16;5038247;57;1139033;-68
2022/07/10 18:55:13;;;;;;;3.50;1.33;;;;;;;15.41;97.19;100824.98;4994225;57;1138869;-68
2022/07/10 19:00:19;;;;;;;1.87;1.00;;;;;;;15.40;97.02;100837.47;5043166;57;1139124;-68
2022/07/10 19:05:24;;;;;;;2.80;0.80;;;;;;;15.35;97.36;100849.53;4989168;58;1139014;-68
2022/07/10 19:10:30;;;;;;;2.30;0.70;;;;;;;15.25;97.87;100848.22;4976684;58;1139288;-68
2022/07/10 19:15:36;;;;;;;1.47;1.30;;;;;;;15.12;99.14;100843.66;5052582;57;1139175;-67
2022/07/10 19:20:41;;;;;;;3.20;0.90;;;;;;;15.00;98.97;100840.27;5058130;58;1139022;-68
2022/07/10 19:25:48;;;;;;;5.03;0.90;;;;;;;14.98;98.81;100840.90;5061929;57;1138981;-68
2022/07/10 19:30:54;;;;;;;2.93;0.73;;;;;;;15.01;98.64;100844.62;5058678;58;1139246;-68
2022/07/10 19:36:00;;;;;;;2.37;0.70;;;;;;;15.00;98.70;100840.27;5073800;57;1139131;-68
2022/07/10 19:41:08;;;;;;;2.50;1.00;;;;;;;14.95;99.14;100842.53;5082926;57;1136976;-67
2022/07/10 19:46:13;;;;;;;1.47;0.90;;;;;;;14.98;99.25;100842.23;5020170;58;1137125;-67
2022/07/10 19:51:19;;;;;;;3.77;1.30;;;;;;;14.94;99.48;100844.00;4970245;59;1136931;-67
2022/07/10 19:56:24;;;;;;;2.40;0.90;;;;;;;14.91;99.38;100842.45;4968358;59;1137001;-68
2022/07/10 20:01:30;;;;;;;3.07;0.90;;;;;;;14.85;99.14;100849.65;4952677;59;1137410;-67
2022/07/10 20:06:36;;;;;;;2.37;1.20;;;;;;;14.81;99.09;100849.59;4984584;59;1136931;-67
2022/07/10 20:11:42;;;;;;;5.17;1.37;;;;;;;14.73;99.08;100850.76;5149165;56;1137026;-67
2022/07/10 20:16:49;;;;;;;1.27;0.83;;;;;;;14.69;99.20;100848.86;5129995;56;1136851;-68
2022/07/10 20:21:55;;;;;;;2.77;1.03;;;;;;;14.57;99.16;100845.12;5115030;57;1137006;-67
2022/07/10 20:27:01;;;;;;;1.63;0.90;;;;;;;14.45;99.53;100849.72;5054640;58;1136946;-67
2022/07/10 20:32:08;;;;;;;3.47;1.10;;;;;;;14.35;99.22;100847.50;5037033;57;1137060;-67
2022/07/10 20:42:37;;;;;;;1.57;0.97;;;;;;;14.16;99.47;100851.41;5031295;57;1137088;-67
2022/07/10 20:47:46;;;;;;;2.77;0.87;;;;;;;14.14;99.57;100844.89;4961575;57;1137002;-68
2022/07/10 20:52:52;;;;;;;4.90;0.97;;;;;;;14.21;99.88;100846.50;5139118;57;1135008;-67
2022/07/10 20:57:59;;;;;;;10.93;1.20;;;;;;;14.27;99.61;100848.64;4996323;57;1135052;-67
2022/07/10 21:03:05;;;;;;;2.70;1.13;;;;;;;14.24;99.41;100845.76;5003210;58;1141381;-67
2022/07/10 21:08:11;;;;;;;1.43;0.97;;;;;;;14.22;99.23;100853.03;5040154;56;1138888;-67
2022/07/10 21:13:25;;;;;;;5.93;1.10;;;;;;;14.18;99.68;100851.63;5050307;57;1139170;-67
2022/07/10 21:18:27;;;;;;;6.03;1.20;;;;;;;14.18;100.00;100852.97;5050831;57;1138975;-67
2022/07/10 21:23:32;;;;;;;3.17;0.90;;;;;;;14.17;100.00;100853.09;5070612;57;1141145;-67
2022/07/10 21:28:38;;;;;;;3.60;1.20;;;;;;;14.12;100.00;100848.17;5071047;57;1141048;-67
2022/07/10 21:33:44;;;;;;;5.50;1.57;;;;;;;14.12;100.00;100848.17;5095336;57;1141437;-68
2022/07/10 21:38:49;;;;;;;1.97;0.90;;;;;;;14.14;100.00;100849.37;5071729;57;1141394;-68
2022/07/10 21:43:56;;;;;;;4.60;1.57;;;;;;;14.12;100.00;100845.99;5071851;56;1141119;-67
2022/07/10 21:49:02;;;;;;;5.47;1.13;;;;;;;14.12;100.00;100845.99;5123056;57;1141244;-67
2022/07/10 21:54:07;;;;;;;3.02;1.35;;;;;;;14.12;100.00;100846.84;5133188;57;1140386;-67
2022/07/10 21:59:13;;;;;;;3.33;1.17;;;;;;;14.17;100.00;100843.78;5132939;57;1141141;-67
2022/07/10 22:04:19;;;;;;;4.03;1.60;;;;;;;14.12;100.00;100848.66;5156133;56;1141178;-67
2022/07/10 22:09:24;;;;;;;5.23;1.30;;;;;;;14.02;100.00;100848.62;5193381;56;1141556;-67
2022/07/10 22:14:30;;;;;;;2.20;1.30;;;;;;;13.95;100.00;100848.78;5163262;56;1141046;-67
2022/07/10 22:19:36;;;;;;;1.80;1.30;;;;;;;13.87;100.00;100845.95;5163242;56;1141151;-67
2022/07/10 22:24:42;;;;;;;4.60;1.30;;;;;;;13.69;100.00;100841.24;5163814;56;1141107;-67
2022/07/10 22:29:47;;;;;;;3.63;1.50;;;;;;;13.69;100.00;100841.24;5163840;56;1141040;-67
2022/07/10 22:34:54;;;;;;;4.80;1.60;;;;;;;13.73;100.00;100840.50;5156977;56;1141414;-67
2022/07/10 22:40:00;;;;;;;7.47;1.83;;;;;;;13.72;100.00;100841.47;5080034;57;1141143;-67
2022/07/10 22:45:06;;;;;;;3.57;1.40;;;;;;;13.68;100.00;100839.55;5079844;57;1141266;-68
2022/07/10 22:50:12;;;;;;;3.77;1.40;;;;;;;13.69;100.00;100836.41;5118371;57;1141092;-67
2022/07/10 22:55:20;;;;;;;3.00;1.30;;;;;;;13.65;100.00;100829.66;5127676;57;1141183;-67
2022/07/10 23:00:26;;;;;;;7.93;1.80;;;;;;;13.62;100.00;100837.41;5102274;57;1141127;-67
2022/07/10 23:05:33;;;;;;;3.80;1.47;;;;;;;13.51;100.00;100826.02;5063926;58;1141471;-67
2022/07/10 23:10:41;;;;;;;3.03;1.53;;;;;;;13.40;100.00;100817.64;5047986;58;1141236;-67
2022/07/10 23:15:46;;;;;;;5.63;1.30;;;;;;;13.31;100.00;100821.05;5041414;58;1141545;-68
2022/07/10 23:20:52;;;;;;;1.90;1.80;;;;;;;13.25;100.00;100822.42;5153576;56;1140947;-68
2022/07/10 23:25:57;;;;;;;2.70;1.37;;;;;;;13.18;100.00;100819.91;5245825;56;1141111;-67
2022/07/10 23:31:03;;;;;;;4.08;2.17;;;;;;;13.15;100.00;100822.81;5241541;56;1141144;-69
2022/07/10 23:36:09;;;;;;;6.03;2.17;;;;;;;13.12;100.00;100813.77;5160226;57;1141239;-68
2022/07/10 23:41:15;;;;;;;9.20;1.73;;;;;;;13.12;100.00;100818.24;5160316;57;1141485;-68
2022/07/10 23:46:20;;;;;;;7.30;1.77;;;;;;;13.11;100.00;100812.56;5170732;56;1141114;-68
2022/07/10 23:51:26;;;;;;;6.27;1.73;;;;;;;13.09;100.00;100810.03;5246889;56;1141108;-68
2022/07/10 23:56:31;;;;;;;4.57;2.00;;;;;;;13.06;100.00;100810.28;5193838;56;1141339;-66
